Time;durP1;ratioP1;P1;durP2;ratioP2;P2;SDS_P1;SDS_P2;PMS_P1;PMS_P2;Temp;Humidity;BMP_temperature;BMP_pressure;BME280_temperature;BME280_humidity;BME280_pressure;Samples;Min_cycle;Max_cycle;Signal;HPM_P1;HPM_P2
2023/10/24 00:01:08;;;;;;;942.27;880.60;;;12.40;99.90;;;;;;5012598;28;20969;-72
2023/10/24 00:03:35;;;;;;;938.53;878.50;;;12.40;99.90;;;;;;5012434;28;20474;-72
2023/10/24 00:06:03;;;;;;;941.97;881.67;;;12.40;99.90;;;;;;5012388;28;20448;-72
2023/10/24 00:08:30;;;;;;;940.90;880.77;;;12.50;99.90;;;;;;5012518;28;20518;-72
2023/10/24 00:11:01;;;;;;;936.70;878.07;;;12.50;99.90;;;;;;5012635;28;20537;-72
2023/10/24 00:13:28;;;;;;;925.50;869.20;;;12.50;99.90;;;;;;5012423;28;20454;-72
2023/10/24 00:15:54;;;;;;;913.70;858.60;;;12.60;99.90;;;;;;5012418;28;20463;-72
2023/10/24 00:18:21;;;;;;;905.57;852.70;;;12.60;99.90;;;;;;5016578;28;20499;-72
2023/10/24 00:20:48;;;;;;;891.97;840.73;;;12.60;99.90;;;;;;5019243;28;20483;-72
2023/10/24 00:23:15;;;;;;;866.67;818.20;;;12.70;99.90;;;;;;5018863;28;21042;-72
2023/10/24 00:25:42;;;;;;;857.17;809.60;;;12.70;99.90;;;;;;5018918;28;20451;-72
2023/10/24 00:28:11;;;;;;;846.27;800.60;;;12.70;99.90;;;;;;5019046;28;20463;-72
2023/10/24 00:30:39;;;;;;;851.50;804.87;;;12.70;99.90;;;;;;5019378;28;20453;-72
2023/10/24 00:33:06;;;;;;;830.13;786.27;;;12.70;99.90;;;;;;5018519;28;20975;-72
2023/10/24 00:35:33;;;;;;;817.60;774.60;;;12.80;99.90;;;;;;5018966;28;20531;-72
2023/10/24 00:38:00;;;;;;;795.27;755.37;;;12.80;99.90;;;;;;5018773;28;20955;-72
2023/10/24 00:40:27;;;;;;;817.50;775.23;;;12.80;99.90;;;;;;5018891;28;20448;-72
2023/10/24 00:42:54;;;;;;;828.47;785.07;;;12.80;99.90;;;;;;5018731;28;20476;-72
2023/10/24 00:45:22;;;;;;;804.30;763.70;;;12.80;99.90;;;;;;5018671;28;20535;-73
2023/10/24 00:47:49;;;;;;;772.77;734.73;;;12.70;99.90;;;;;;5018950;28;20505;-73
2023/10/24 00:50:17;;;;;;;782.97;743.33;;;12.80;99.90;;;;;;5018682;28;20456;-73
2023/10/24 00:52:45;;;;;;;759.27;721.60;;;12.80;99.90;;;;;;5018490;28;20950;-72
2023/10/24 00:55:14;;;;;;;738.70;702.90;;;12.80;99.90;;;;;;5018596;28;20542;-73
2023/10/24 00:57:41;;;;;;;706.10;672.83;;;12.80;99.90;;;;;;5018599;28;20464;-73
2023/10/24 01:00:09;;;;;;;685.20;653.20;;;12.80;99.90;;;;;;5018693;28;20457;-72
2023/10/24 01:02:38;;;;;;;651.13;621.60;;;12.80;99.90;;;;;;5018751;28;20809;-73
2023/10/24 01:05:06;;;;;;;623.83;596.00;;;12.80;99.90;;;;;;5018743;28;20491;-73
2023/10/24 01:07:33;;;;;;;610.60;583.50;;;12.80;99.90;;;;;;5018677;28;20455;-73
2023/10/24 01:10:00;;;;;;;578.57;553.20;;;12.80;99.90;;;;;;5018568;28;20451;-73
2023/10/24 01:12:27;;;;;;;607.30;579.90;;;12.80;99.90;;;;;;5018882;28;20953;-73
2023/10/24 01:14:54;;;;;;;595.20;568.37;;;12.80;99.90;;;;;;5018238;28;20456;-73
2023/10/24 01:17:21;;;;;;;601.40;574.57;;;12.80;99.90;;;;;;5018407;28;21020;-73
2023/10/24 01:19:50;;;;;;;603.73;576.83;;;12.80;99.90;;;;;;5018391;28;20452;-73
2023/10/24 01:22:18;;;;;;;616.07;588.17;;;12.80;99.90;;;;;;5018403;28;20537;-73
2023/10/24 01:24:45;;;;;;;646.03;615.63;;;12.70;99.90;;;;;;5018209;28;20567;-73
2023/10/24 01:27:12;;;;;;;682.07;649.77;;;12.70;99.90;;;;;;5018251;28;20643;-73
2023/10/24 01:29:39;;;;;;;710.53;675.83;;;12.70;99.90;;;;;;5015697;28;20456;-72
2023/10/24 01:32:07;;;;;;;724.13;687.60;;;12.60;99.90;;;;;;5015128;28;20961;-73
2023/10/24 01:34:34;;;;;;;707.97;672.07;;;12.60;99.90;;;;;;5015060;28;20448;-73
2023/10/24 01:37:01;;;;;;;753.33;713.93;;;12.60;99.90;;;;;;5015178;28;20482;-72
2023/10/24 01:39:30;;;;;;;739.20;700.53;;;12.60;99.90;;;;;;5015137;28;20503;-73
2023/10/24 01:41:57;;;;;;;759.73;718.67;;;12.60;99.90;;;;;;5014946;28;20935;-72
2023/10/24 01:44:25;;;;;;;780.30;737.00;;;12.60;99.90;;;;;;5015203;28;20582;-72
2023/10/24 01:46:51;;;;;;;798.97;754.10;;;12.60;99.90;;;;;;5014763;28;20451;-73
2023/10/24 01:49:21;;;;;;;795.53;750.70;;;12.60;99.90;;;;;;5014923;28;20498;-73
2023/10/24 01:51:48;;;;;;;779.60;735.30;;;12.60;99.90;;;;;;5014789;28;20924;-73
2023/10/24 01:54:15;;;;;;;805.53;758.13;;;12.60;99.90;;;;;;5014662;28;20454;-72
2023/10/24 01:56:43;;;;;;;837.60;788.30;;;12.60;99.90;;;;;;5014930;28;20451;-72
2023/10/24 01:59:10;;;;;;;832.23;782.40;;;12.60;99.90;;;;;;5014762;28;20935;-72
2023/10/24 02:01:37;;;;;;;824.00;774.97;;;12.60;99.90;;;;;;5015073;28;20488;-72
2023/10/24 02:04:04;;;;;;;802.83;755.83;;;12.60;99.90;;;;;;5014481;28;20515;-73
2023/10/24 02:06:31;;;;;;;795.30;748.67;;;12.60;99.90;;;;;;5014502;28;20555;-72
2023/10/24 02:08:58;;;;;;;792.73;746.73;;;12.60;99.90;;;;;;5014480;28;20499;-72
2023/10/24 02:11:25;;;;;;;767.63;724.63;;;12.60;99.90;;;;;;5014681;28;20843;-73
2023/10/24 02:13:54;;;;;;;730.70;691.20;;;12.60;99.90;;;;;;5014587;28;20538;-73
2023/10/24 02:16:19;;;;;;;673.13;638.63;;;12.60;99.90;;;;;;5014589;28;20882;-73
2023/10/24 02:18:46;;;;;;;596.57;568.83;;;12.60;99.90;;;;;;5014368;28;20548;-73
2023/10/24 02:21:14;;;;;;;610.50;582.50;;;12.70;99.90;;;;;;5014282;28;20486;-73
2023/10/24 02:23:40;;;;;;;619.43;590.13;;;12.70;99.90;;;;;;5014056;28;20499;-73
2023/10/24 02:26:14;;;;;;;653.70;623.10;;;12.70;99.90;;;;;;5014313;28;20475;-72
2023/10/24 02:28:41;;;;;;;667.30;634.70;;;12.60;99.90;;;;;;5014145;28;20452;-72
2023/10/24 02:31:10;;;;;;;649.87;618.40;;;12.60;99.90;;;;;;5014146;28;20506;-73
2023/10/24 02:33:37;;;;;;;628.13;598.60;;;12.60;99.90;;;;;;5013869;28;20817;-73
2023/10/24 02:36:08;;;;;;;590.43;563.23;;;12.60;99.90;;;;;;5014741;28;20544;-72
2023/10/24 02:38:35;;;;;;;581.43;554.53;;;12.60;99.90;;;;;;5013906;28;20540;-72
2023/10/24 02:41:02;;;;;;;589.17;561.67;;;12.60;99.90;;;;;;5013892;28;20513;-72
2023/10/24 02:43:29;;;;;;;613.43;584.33;;;12.60;99.90;;;;;;5013688;28;20452;-73
2023/10/24 02:45:57;;;;;;;655.67;623.07;;;12.60;99.90;;;;;;5013774;28;20455;-73
2023/10/24 02:48:25;;;;;;;678.70;644.70;;;12.60;99.90;;;;;;5013867;28;20455;-72
2023/10/24 02:50:53;;;;;;;671.43;637.37;;;12.60;99.90;;;;;;5013692;28;20509;-73
2023/10/24 02:53:20;;;;;;;656.73;623.57;;;12.60;99.90;;;;;;5013552;28;20542;-73
2023/10/24 02:55:47;;;;;;;605.43;575.97;;;12.60;99.90;;;;;;5013618;28;20546;-73
2023/10/24 02:58:14;;;;;;;627.17;596.27;;;12.50;99.90;;;;;;5013725;28;20455;-74
2023/10/24 03:00:41;;;;;;;675.73;641.57;;;12.50;99.90;;;;;;5013679;28;20935;-75
2023/10/24 03:03:08;;;;;;;711.83;674.93;;;12.50;99.90;;;;;;5013487;28;20541;-75
2023/10/24 03:05:36;;;;;;;773.07;730.70;;;12.40;99.90;;;;;;5013546;28;20669;-75
2023/10/24 03:08:03;;;;;;;800.77;754.67;;;12.40;99.90;;;;;;5013433;28;20456;-75
2023/10/24 03:10:30;;;;;;;845.13;794.43;;;12.30;99.90;;;;;;5013449;28;20959;-75
2023/10/24 03:12:57;;;;;;;874.70;819.90;;;12.30;99.90;;;;;;5013294;28;20454;-75
2023/10/24 03:15:24;;;;;;;883.03;826.70;;;12.30;99.90;;;;;;5013627;28;20534;-75
2023/10/24 03:17:51;;;;;;;889.17;832.10;;;12.20;99.90;;;;;;5013216;28;20537;-75
2023/10/24 03:20:18;;;;;;;891.00;834.00;;;12.20;99.90;;;;;;5013274;28;20486;-75
2023/10/24 03:22:46;;;;;;;882.70;826.90;;;12.20;99.90;;;;;;5013331;28;20458;-75
2023/10/24 03:25:13;;;;;;;860.60;808.10;;;12.20;99.90;;;;;;5013115;28;20479;-75
2023/10/24 03:27:40;;;;;;;870.73;817.30;;;12.20;99.90;;;;;;5013076;28;20457;-74
2023/10/24 03:30:09;;;;;;;851.13;799.20;;;12.20;99.90;;;;;;5013057;28;20452;-75
2023/10/24 03:32:36;;;;;;;849.37;798.47;;;12.20;99.90;;;;;;5012864;28;20456;-75
2023/10/24 03:35:03;;;;;;;861.10;809.30;;;12.20;99.90;;;;;;5012800;28;20546;-75
2023/10/24 03:37:30;;;;;;;812.27;765.33;;;12.20;99.90;;;;;;5013232;28;20476;-74
2023/10/24 03:39:58;;;;;;;771.03;728.87;;;12.30;99.90;;;;;;5012989;28;20478;-75
2023/10/24 03:42:25;;;;;;;620.23;589.73;;;12.30;99.90;;;;;;5012854;28;20555;-75
2023/10/24 03:44:53;;;;;;;547.63;523.00;;;12.40;99.90;;;;;;5012746;28;20563;-74
2023/10/24 03:47:20;;;;;;;529.77;506.57;;;12.40;99.90;;;;;;5013009;28;20594;-75
2023/10/24 03:49:46;;;;;;;617.17;588.47;;;12.40;99.90;;;;;;5012937;28;20836;-75
2023/10/24 03:52:14;;;;;;;645.70;614.70;;;12.30;99.90;;;;;;5012133;28;20553;-74
2023/10/24 03:54:41;;;;;;;653.23;621.30;;;12.40;99.90;;;;;;5012778;28;20451;-74
2023/10/24 03:57:09;;;;;;;664.27;631.73;;;12.30;99.90;;;;;;5013239;28;20457;-74
2023/10/24 03:59:36;;;;;;;635.23;604.30;;;12.30;99.90;;;;;;5012619;28;21021;-74
2023/10/24 04:02:03;;;;;;;617.63;587.63;;;12.30;99.90;;;;;;5012970;28;20452;-74
2023/10/24 04:04:30;;;;;;;583.67;556.20;;;12.30;99.90;;;;;;5012894;28;20536;-73
2023/10/24 04:06:57;;;;;;;579.53;552.37;;;12.30;99.90;;;;;;5012564;28;20450;-73
2023/10/24 04:09:24;;;;;;;521.30;497.90;;;12.30;99.90;;;;;;5012628;28;20488;-73
2023/10/24 04:11:51;;;;;;;497.67;476.07;;;12.30;99.90;;;;;;5012489;28;20886;-73
2023/10/24 04:14:19;;;;;;;503.30;481.20;;;12.30;99.90;;;;;;5012341;28;20528;-73
2023/10/24 04:16:46;;;;;;;492.50;471.03;;;12.30;99.90;;;;;;5012464;28;20454;-73
2023/10/24 04:19:13;;;;;;;527.93;504.40;;;12.20;99.90;;;;;;5012386;28;20558;-72
2023/10/24 04:21:40;;;;;;;555.67;530.37;;;12.20;99.90;;;;;;5012507;28;20458;-72
2023/10/24 04:24:08;;;;;;;551.07;525.87;;;12.20;99.90;;;;;;5012844;28;20486;-72
2023/10/24 04:26:35;;;;;;;534.53;510.53;;;12.20;99.90;;;;;;5012118;28;20546;-72
2023/10/24 04:29:03;;;;;;;491.10;469.53;;;12.20;99.90;;;;;;5012154;28;20969;-72
2023/10/24 04:31:31;;;;;;;448.10;429.30;;;12.20;99.90;;;;;;5012365;28;20539;-72
2023/10/24 04:33:59;;;;;;;469.27;449.83;;;12.30;99.90;;;;;;5012438;28;20455;-72
2023/10/24 04:36:26;;;;;;;452.37;433.77;;;12.30;99.90;;;;;;5012257;28;20469;-72
2023/10/24 04:38:53;;;;;;;448.67;430.27;;;12.20;99.90;;;;;;5012307;28;20550;-72
2023/10/24 04:41:20;;;;;;;446.87;428.77;;;12.30;99.90;;;;;;5012122;28;20455;-72
2023/10/24 04:43:47;;;;;;;462.53;443.13;;;12.20;99.90;;;;;;5012083;28;20495;-72
2023/10/24 04:46:14;;;;;;;481.37;460.67;;;12.30;99.90;;;;;;5012377;28;20507;-72
2023/10/24 04:48:42;;;;;;;370.40;355.83;;;12.20;99.90;;;;;;5012416;28;20502;-72
2023/10/24 04:51:11;;;;;;;390.00;374.70;;;12.20;99.90;;;;;;5012419;28;20955;-72
2023/10/24 04:53:38;;;;;;;409.53;393.27;;;12.20;99.90;;;;;;5012099;28;20823;-72
2023/10/24 04:56:20;;;;;;;420.47;403.10;;;12.20;99.90;;;;;;4989707;28;20513;-73
2023/10/24 04:58:47;;;;;;;431.27;413.27;;;12.30;99.90;;;;;;5012361;28;20450;-72
2023/10/24 05:01:14;;;;;;;432.70;414.23;;;12.30;99.90;;;;;;5012278;28;20450;-72
2023/10/24 05:03:43;;;;;;;406.50;389.97;;;12.30;99.90;;;;;;5012004;28;20520;-72
2023/10/24 05:06:12;;;;;;;335.43;322.70;;;12.30;99.90;;;;;;5015250;28;20568;-72
2023/10/24 05:08:39;;;;;;;345.13;332.03;;;12.30;99.90;;;;;;5015777;28;20454;-73
2023/10/24 05:11:07;;;;;;;359.83;345.87;;;12.30;99.90;;;;;;5015804;28;20537;-72
2023/10/24 05:13:34;;;;;;;395.40;379.57;;;12.30;99.90;;;;;;5015741;28;20493;-73
2023/10/24 05:16:01;;;;;;;376.10;361.33;;;12.20;99.90;;;;;;5015623;28;20541;-72
2023/10/24 05:18:30;;;;;;;316.03;304.40;;;12.30;99.90;;;;;;5015611;28;20828;-72
2023/10/24 05:20:58;;;;;;;218.07;211.00;;;12.30;99.90;;;;;;5015777;28;20799;-72
2023/10/24 05:23:25;;;;;;;196.40;190.10;;;12.30;99.90;;;;;;5015478;28;20933;-72
2023/10/24 05:25:52;;;;;;;245.60;237.70;;;12.30;99.90;;;;;;5015235;28;20482;-72
2023/10/24 05:28:19;;;;;;;214.83;207.83;;;12.30;99.90;;;;;;5015469;28;20479;-72
2023/10/24 05:30:46;;;;;;;111.60;107.90;;;12.30;99.90;;;;;;5015434;28;20471;-72
2023/10/24 05:33:13;;;;;;;158.10;152.90;;;12.40;99.90;;;;;;5015667;28;20942;-72
2023/10/24 05:35:47;;;;;;;141.17;136.47;;;12.40;99.90;;;;;;5015128;28;20478;-72
2023/10/24 05:38:15;;;;;;;145.73;140.93;;;12.40;99.90;;;;;;5015178;28;20459;-72
2023/10/24 05:40:45;;;;;;;203.77;197.27;;;12.40;99.90;;;;;;5015342;28;20449;-72
2023/10/24 05:43:12;;;;;;;207.07;200.47;;;12.40;99.90;;;;;;5015171;28;20451;-72
2023/10/24 05:45:38;;;;;;;232.73;225.03;;;12.40;99.90;;;;;;5014906;28;20475;-72
2023/10/24 05:48:06;;;;;;;232.93;225.47;;;12.30;99.90;;;;;;5015128;28;20453;-72
2023/10/24 05:50:33;;;;;;;255.77;247.37;;;12.30;99.90;;;;;;5014711;28;21017;-72
2023/10/24 05:53:00;;;;;;;246.80;238.90;;;12.30;99.90;;;;;;5004715;28;21019;-72
2023/10/24 05:55:28;;;;;;;244.23;236.23;;;12.30;99.90;;;;;;4994641;28;20587;-73
2023/10/24 05:57:55;;;;;;;232.07;224.57;;;12.30;99.90;;;;;;4994190;28;20463;-72
2023/10/24 06:00:22;;;;;;;210.33;203.47;;;12.20;99.90;;;;;;4995411;28;20562;-72
2023/10/24 06:02:49;;;;;;;203.10;196.60;;;12.30;99.90;;;;;;4994987;28;20944;-72
2023/10/24 06:05:16;;;;;;;179.70;173.83;;;12.30;99.90;;;;;;4995053;28;20562;-72
2023/10/24 06:07:43;;;;;;;191.30;185.10;;;12.30;99.90;;;;;;4995107;28;20547;-72
2023/10/24 06:10:10;;;;;;;151.30;146.20;;;12.30;99.90;;;;;;4994945;28;20535;-72
2023/10/24 06:12:39;;;;;;;129.67;125.23;;;12.30;99.90;;;;;;4995015;28;20467;-73
2023/10/24 06:15:06;;;;;;;130.60;126.30;;;12.30;99.90;;;;;;4993728;28;20448;-73
2023/10/24 06:17:35;;;;;;;132.80;128.47;;;12.30;99.90;;;;;;4994682;28;20548;-73
2023/10/24 06:20:02;;;;;;;148.87;143.80;;;12.30;99.90;;;;;;4994741;28;20462;-72
2023/10/24 06:22:29;;;;;;;156.97;151.87;;;12.30;99.90;;;;;;4994970;28;20551;-73
2023/10/24 06:24:58;;;;;;;136.00;131.40;;;12.20;99.90;;;;;;4994541;28;20490;-72
2023/10/24 06:27:25;;;;;;;145.03;140.30;;;12.20;99.90;;;;;;4994446;28;20466;-73
2023/10/24 06:29:53;;;;;;;128.00;123.80;;;12.20;99.90;;;;;;4994736;28;20451;-73
2023/10/24 06:32:20;;;;;;;183.73;177.80;;;12.20;99.90;;;;;;4994586;28;20547;-72
2023/10/24 06:34:47;;;;;;;197.23;190.97;;;12.20;99.90;;;;;;4994494;28;20483;-72
2023/10/24 06:37:13;;;;;;;259.73;250.97;;;12.20;99.90;;;;;;4994644;28;20809;-72
2023/10/24 06:39:40;;;;;;;256.30;247.90;;;12.20;99.90;;;;;;4994288;28;20451;-72
2023/10/24 06:42:07;;;;;;;233.93;226.40;;;12.20;99.90;;;;;;4994071;28;20486;-72
2023/10/24 06:44:34;;;;;;;241.37;233.57;;;12.20;99.90;;;;;;4994485;28;20538;-73
2023/10/24 06:47:03;;;;;;;212.50;205.23;;;12.20;99.90;;;;;;4994207;28;20506;-73
2023/10/24 06:49:29;;;;;;;199.03;192.60;;;12.20;99.90;;;;;;4994068;28;20541;-72
2023/10/24 06:51:56;;;;;;;224.73;217.53;;;12.30;99.90;;;;;;4994331;28;20463;-73
2023/10/24 06:54:23;;;;;;;233.80;226.13;;;12.30;99.90;;;;;;4994201;28;20515;-73
2023/10/24 06:56:50;;;;;;;169.13;163.67;;;12.30;99.90;;;;;;4993964;28;20550;-72
2023/10/24 06:59:17;;;;;;;134.77;130.37;;;12.30;99.90;;;;;;4994166;28;20461;-72
2023/10/24 07:01:43;;;;;;;79.77;76.77;;;12.40;99.90;;;;;;4994300;28;20506;-73
2023/10/24 07:04:12;;;;;;;49.37;47.43;;;12.50;99.90;;;;;;4993971;28;20454;-72
2023/10/24 07:06:39;;;;;;;24.67;23.57;;;12.50;99.90;;;;;;4994197;28;20571;-72
2023/10/24 07:09:06;;;;;;;33.67;32.27;;;12.50;99.90;;;;;;4992425;28;20457;-73
2023/10/24 07:11:33;;;;;;;16.43;15.53;;;12.50;99.90;;;;;;4993333;28;20490;-72
2023/10/24 07:14:00;;;;;;;19.40;18.50;;;12.60;99.90;;;;;;4993708;28;20456;-73
2023/10/24 07:16:27;;;;;;;12.47;11.67;;;12.60;99.90;;;;;;4993540;28;20459;-72
2023/10/24 07:18:53;;;;;;;10.87;10.10;;;12.60;99.90;;;;;;4992048;28;20453;-72
2023/10/24 07:21:22;;;;;;;7.60;7.00;;;12.60;99.90;;;;;;4993303;28;20459;-72
2023/10/24 07:23:50;;;;;;;10.20;9.60;;;12.70;99.90;;;;;;4992984;28;20460;-72
2023/10/24 07:26:18;;;;;;;5.90;4.67;;;12.70;99.90;;;;;;4993026;28;20517;-72
2023/10/24 07:28:45;;;;;;;6.20;4.20;;;12.70;99.90;;;;;;4992750;28;20526;-72
2023/10/24 07:31:12;;;;;;;4.97;3.60;;;12.80;99.90;;;;;;4993182;28;20449;-73
2023/10/24 07:33:39;;;;;;;4.87;3.50;;;12.80;99.90;;;;;;4992974;28;20624;-73
2023/10/24 07:36:06;;;;;;;6.23;5.63;;;12.80;99.90;;;;;;4992922;28;20488;-72
2023/10/24 07:38:35;;;;;;;10.30;9.53;;;12.90;99.90;;;;;;4992834;28;20503;-72
2023/10/24 07:41:02;;;;;;;9.60;9.00;;;12.90;99.90;;;;;;4992856;28;20523;-72
2023/10/24 07:43:29;;;;;;;12.97;12.20;;;12.80;99.90;;;;;;4993101;28;20450;-72
2023/10/24 07:45:56;;;;;;;14.23;13.33;;;12.80;99.90;;;;;;4992708;28;20575;-72
2023/10/24 07:48:24;;;;;;;18.60;17.17;;;12.80;99.90;;;;;;4992758;28;20515;-72
2023/10/24 07:50:52;;;;;;;22.57;21.37;;;12.70;99.90;;;;;;4992728;28;20456;-72
2023/10/24 07:53:19;;;;;;;28.80;27.40;;;12.70;99.90;;;;;;4992627;28;20463;-72
2023/10/24 07:55:48;;;;;;;29.87;28.67;;;12.70;99.90;;;;;;4992769;28;20445;-72
2023/10/24 07:58:17;;;;;;;26.90;25.77;;;12.70;99.90;;;;;;4992618;28;20543;-72
2023/10/24 08:00:44;;;;;;;21.50;20.50;;;12.80;99.90;;;;;;4992629;28;20452;-72
2023/10/24 08:03:11;;;;;;;30.60;29.30;;;12.80;99.90;;;;;;4992379;28;20452;-72
2023/10/24 08:05:38;;;;;;;41.90;40.20;;;12.80;99.90;;;;;;4992398;28;20516;-72
2023/10/24 08:08:06;;;;;;;40.40;38.80;;;12.80;99.90;;;;;;4992791;28;20451;-72
2023/10/24 08:10:33;;;;;;;57.87;55.77;;;12.90;99.90;;;;;;4992544;28;20543;-72
2023/10/24 08:13:02;;;;;;;53.30;51.30;;;12.90;99.90;;;;;;4992472;28;20456;-72
2023/10/24 08:15:29;;;;;;;39.77;38.03;;;12.90;99.90;;;;;;4992831;28;20542;-72
2023/10/24 08:17:56;;;;;;;27.90;26.70;;;13.00;99.90;;;;;;4992344;28;20611;-72
2023/10/24 08:20:23;;;;;;;22.80;21.60;;;13.00;99.90;;;;;;4992964;28;20467;-72
2023/10/24 08:22:51;;;;;;;29.17;27.87;;;13.10;99.90;;;;;;4992297;28;20452;-72
2023/10/24 08:25:18;;;;;;;21.33;20.33;;;13.20;99.90;;;;;;4992329;28;20486;-72
2023/10/24 08:27:45;;;;;;;17.43;16.20;;;13.30;99.90;;;;;;4992599;28;20976;-72
2023/10/24 08:30:14;;;;;;;8.90;8.03;;;13.50;99.90;;;;;;4992773;28;20496;-72
2023/10/24 08:32:41;;;;;;;9.50;8.83;;;13.50;99.90;;;;;;4992264;28;20891;-72
2023/10/24 08:35:09;;;;;;;7.00;6.30;;;13.50;99.90;;;;;;4992401;28;20544;-72
2023/10/24 08:37:36;;;;;;;6.37;5.53;;;13.50;99.90;;;;;;4992835;28;20460;-72
2023/10/24 08:40:03;;;;;;;6.00;5.40;;;13.60;99.90;;;;;;4995995;28;20452;-72
2023/10/24 08:42:30;;;;;;;10.00;5.20;;;13.80;99.90;;;;;;4996145;28;20465;-72
2023/10/24 08:44:59;;;;;;;5.93;4.30;;;13.90;99.90;;;;;;4996538;28;20213;-71
2023/10/24 08:47:28;;;;;;;4.88;3.70;;;14.10;99.90;;;;;;4995556;28;20820;-72
2023/10/24 08:49:56;;;;;;;5.93;2.60;;;14.20;99.90;;;;;;4996656;28;20198;-72
2023/10/24 08:52:23;;;;;;;3.80;1.80;;;14.30;99.90;;;;;;4996124;28;20472;-72
2023/10/24 08:54:51;;;;;;;6.53;2.13;;;14.30;99.90;;;;;;4996158;28;20456;-71
2023/10/24 08:57:25;;;;;;;4.50;2.10;;;14.50;99.50;;;;;;4996323;28;20445;-71
2023/10/24 08:59:55;;;;;;;4.70;1.80;;;14.40;99.90;;;;;;4996563;28;20544;-71
2023/10/24 09:02:23;;;;;;;3.90;2.40;;;14.40;99.90;;;;;;4996540;28;20454;-71
2023/10/24 09:04:52;;;;;;;4.30;2.50;;;14.50;99.90;;;;;;4996223;28;20893;-71
2023/10/24 09:07:19;;;;;;;6.83;2.60;;;14.50;99.90;;;;;;4996116;28;20489;-71
2023/10/24 09:09:46;;;;;;;4.37;2.27;;;14.60;99.90;;;;;;4996097;28;20867;-71
2023/10/24 09:12:15;;;;;;;4.97;2.10;;;14.50;99.50;;;;;;4995986;28;20523;-71
2023/10/24 09:14:46;;;;;;;4.20;1.90;;;14.60;99.50;;;;;;4996129;28;20449;-71
2023/10/24 09:17:15;;;;;;;6.40;1.63;;;14.70;99.60;;;;;;4996024;28;20446;-71
2023/10/24 09:19:43;;;;;;;4.67;2.00;;;14.60;99.50;;;;;;4995959;28;20453;-71
2023/10/24 09:22:15;;;;;;;7.10;2.37;;;14.50;99.50;;;;;;4995766;28;20457;-71
2023/10/24 09:24:45;;;;;;;5.30;1.97;;;14.40;99.40;;;;;;4995720;28;20830;-71
2023/10/24 09:27:14;;;;;;;4.20;2.00;;;14.30;99.40;;;;;;4996179;28;20847;-71
2023/10/24 09:29:41;;;;;;;5.60;2.20;;;14.20;99.30;;;;;;4995823;28;20460;-71
2023/10/24 09:32:13;;;;;;;4.17;1.70;;;14.10;99.30;;;;;;4995686;28;20485;-71
2023/10/24 09:34:42;;;;;;;5.53;2.60;;;14.20;99.40;;;;;;4995800;28;20549;-71
2023/10/24 09:37:13;;;;;;;4.43;1.90;;;14.10;99.30;;;;;;4995598;28;20976;-71
2023/10/24 09:39:56;;;;;;;6.53;3.00;;;14.10;99.30;;;;;;4995809;28;20457;-71
2023/10/24 09:42:27;;;;;;;6.17;2.50;;;14.20;99.40;;;;;;4995645;28;20485;-71
2023/10/24 09:44:55;;;;;;;7.57;2.10;;;14.20;99.40;;;;;;4995516;28;20489;-71
2023/10/24 09:47:23;;;;;;;4.20;1.57;;;14.20;99.40;;;;;;4995398;28;20478;-71
2023/10/24 09:49:51;;;;;;;4.60;1.90;;;14.30;99.40;;;;;;4994489;28;20557;-71
2023/10/24 09:52:21;;;;;;;8.50;2.20;;;14.40;99.40;;;;;;4995383;28;20465;-71
2023/10/24 09:54:49;;;;;;;4.67;1.97;;;14.40;99.40;;;;;;4995310;28;21077;-71
2023/10/24 09:57:18;;;;;;;5.93;2.50;;;14.60;99.20;;;;;;4995269;28;20466;-71
2023/10/24 09:59:46;;;;;;;5.60;2.33;;;14.70;99.40;;;;;;4995235;28;20453;-71
2023/10/24 10:02:16;;;;;;;7.50;2.80;;;14.90;98.40;;;;;;4994009;28;21021;-70
2023/10/24 10:04:43;;;;;;;6.07;2.07;;;15.20;99.80;;;;;;4995418;28;20257;-70
2023/10/24 10:07:12;;;;;;;8.40;2.00;;;15.40;96.60;;;;;;4995410;28;20861;-70
2023/10/24 10:09:43;;;;;;;4.40;1.60;;;15.40;91.30;;;;;;4996539;28;20285;-70
2023/10/24 10:12:12;;;;;;;4.20;1.70;;;15.60;89.80;;;;;;4995920;28;20438;-70
2023/10/24 10:14:50;;;;;;;7.13;1.77;;;15.80;90.00;;;;;;4995019;28;20454;-70
2023/10/24 10:17:26;;;;;;;4.20;1.40;;;15.90;90.00;;;;;;4994886;28;20540;-70
2023/10/24 10:20:12;;;;;;;4.60;1.60;;;15.70;89.90;;;;;;5014457;28;20448;-71
2023/10/24 10:22:51;;;;;;;4.50;1.83;;;15.70;89.90;;;;;;5014786;28;20539;-71
2023/10/24 10:25:55;;;;;;;7.70;2.17;;;15.60;89.80;;;;;;5013818;28;20453;-71
2023/10/24 10:28:41;;;;;;;5.77;1.80;;;15.50;89.70;;;;;;5014415;28;20870;-71
2023/10/24 10:31:34;;;;;;;5.97;2.17;;;15.60;89.80;;;;;;5014116;28;20511;-71
2023/10/24 10:34:01;;;;;;;5.23;2.00;;;15.80;90.90;;;;;;5012775;28;20871;-71
2023/10/24 10:36:29;;;;;;;7.50;2.13;;;15.60;89.80;;;;;;5013534;28;20519;-71
2023/10/24 10:39:00;;;;;;;5.43;1.87;;;15.60;90.70;;;;;;5013695;28;20948;-72
2023/10/24 10:41:39;;;;;;;6.07;2.10;;;15.50;90.90;;;;;;5013499;28;20543;-71
2023/10/24 10:44:41;;;;;;;7.27;1.90;;;15.30;89.50;;;;;;5013873;28;20794;-71
2023/10/24 10:47:09;;;;;;;8.47;1.90;;;15.20;92.90;;;;;;5013559;28;20486;-71
2023/10/24 10:49:43;;;;;;;8.40;1.90;;;15.10;93.00;;;;;;5012851;28;20455;-72
2023/10/24 10:52:33;;;;;;;5.22;1.80;;;15.10;91.20;;;;;;5013285;28;20472;-71
2023/10/24 10:55:13;;;;;;;5.40;1.80;;;15.10;91.80;;;;;;5010396;28;20226;-71
2023/10/24 10:57:59;;;;;;;4.93;1.63;;;15.10;93.10;;;;;;5013274;28;20445;-72
2023/10/24 11:00:33;;;;;;;6.07;1.80;;;15.10;93.10;;;;;;5012960;28;20452;-71
2023/10/24 11:03:14;;;;;;;5.97;2.10;;;14.90;93.00;;;;;;5012978;28;20452;-71
2023/10/24 11:05:51;;;;;;;5.80;1.67;;;14.90;93.00;;;;;;5013313;28;20505;-71
2023/10/24 11:08:23;;;;;;;6.03;1.80;;;14.80;93.00;;;;;;5014950;28;20198;-71
2023/10/24 11:11:00;;;;;;;5.70;2.00;;;14.70;92.90;;;;;;5014804;28;21000;-71
2023/10/24 11:13:36;;;;;;;5.10;1.95;;;14.80;92.90;;;;;;5013993;28;20451;-70
2023/10/24 11:16:04;;;;;;;4.83;1.70;;;14.80;93.00;;;;;;5013766;28;20197;-71
2023/10/24 11:18:33;;;;;;;4.83;1.60;;;14.70;92.90;;;;;;5012779;28;20492;-70
2023/10/24 11:21:00;;;;;;;7.03;2.13;;;14.60;92.90;;;;;;5013947;28;21004;-71
2023/10/24 11:32:24;;;;;;;6.43;4.90;;;14.00;97.40;;;;;;5021374;28;20468;-73
2023/10/24 11:34:51;;;;;;;24.10;21.60;;;13.80;99.20;;;;;;5022292;28;20463;-76
2023/10/24 11:40:05;;;;;;;146.73;141.77;;;13.50;99.90;;;;;;5021223;28;20456;-76
2023/10/24 11:42:32;;;;;;;220.43;213.53;;;13.30;99.90;;;;;;5022278;28;20519;-79
2023/10/24 11:44:59;;;;;;;254.80;247.13;;;13.20;99.90;;;;;;5021628;28;20943;-79
2023/10/24 11:47:27;;;;;;;416.57;404.30;;;13.20;99.90;;;;;;5020909;28;20497;-80
2023/10/24 11:49:54;;;;;;;532.83;516.27;;;13.10;99.90;;;;;;5021168;28;20535;-81
2023/10/24 11:52:21;;;;;;;802.90;766.60;;;12.90;99.90;;;;;;5022227;28;20437;-82
2023/10/24 11:57:32;;;;;;;864.27;814.60;;;12.80;99.90;;;;;;5019937;28;20483;-82
2023/10/24 11:59:58;;;;;;;879.80;822.47;;;12.70;99.90;;;;;;5022297;28;20446;-82
2023/10/24 12:02:27;;;;;;;880.57;818.60;;;12.70;99.90;;;;;;5022010;28;20606;-83
2023/10/24 12:04:54;;;;;;;872.37;807.33;;;12.70;99.90;;;;;;5022023;28;20539;-83
2023/10/24 12:07:20;;;;;;;874.07;806.57;;;12.70;99.90;;;;;;5022178;28;20523;-83
2023/10/24 12:09:47;;;;;;;924.63;855.73;;;12.70;99.90;;;;;;5021855;28;20528;-88
2023/10/24 12:12:14;;;;;;;906.87;837.33;;;12.70;99.90;;;;;;5021803;28;20498;-87
2023/10/24 12:17:24;;;;;;;896.83;826.50;;;12.60;99.90;;;;;;5020582;28;20938;-89
2023/10/24 12:19:52;;;;;;;908.47;836.40;;;12.50;99.90;;;;;;5021281;28;20885;-86
2023/10/24 12:22:19;;;;;;;899.10;823.60;;;12.40;99.90;;;;;;5021655;28;20533;-79
2023/10/24 12:24:46;;;;;;;906.90;828.07;;;12.40;99.90;;;;;;5021466;28;20456;-92
2023/10/24 12:27:13;;;;;;;918.07;837.90;;;12.50;99.90;;;;;;5021687;28;20454;-82
2023/10/24 12:30:01;;;;;;;907.57;829.87;;;12.50;99.90;;;;;;5021964;28;20446;-83
2023/10/24 12:32:30;;;;;;;908.37;832.50;;;12.50;99.90;;;;;;5022440;28;20432;-87
2023/10/24 12:34:59;;;;;;;906.80;828.90;;;12.60;99.90;;;;;;5021721;28;20436;-87
2023/10/24 12:37:26;;;;;;;912.63;835.90;;;12.60;99.90;;;;;;5021685;28;20451;-86
2023/10/24 12:40:05;;;;;;;909.60;832.90;;;12.60;99.90;;;;;;5021870;28;20461;-87
2023/10/24 12:42:33;;;;;;;908.27;834.90;;;12.50;99.90;;;;;;5022111;28;20435;-86